KHBG/HBG METAR and TAF weather

Enter ICAO airport designator
Station Type Date Time Source
KHBG METAR 2021/08/01 15:53 UTC NOAA

KHBG 011553Z AUTO 34005KT 10SM CLR 33/23 A3005 RMK AO2 SLP171 T03280233


Station Type Date Time Source
KHBG Decoded METAR 2021/08/01 15:53 UTC NOAA

HATTIESBURG CHAIN MUNICIPAL, MS, United States (KHBG) 31-16N 89-15W 44M
Aug 01, 2021 - 11:53 AM EDT / 2021.08.01 1553 UTC
Wind: from the NNW (340 degrees) at 6 MPH (5 KT):0
Visibility: 10 mile(s):0
Sky conditions: clear
Temperature: 91.0 F (32.8 C)
Heat index: 100.2 F (37.9 C):1
Dew Point: 73.9 F (23.3 C)
Relative Humidity: 57%
Pressure (altimeter): 30.05 in. Hg (1017 hPa)
ob: KHBG 011553Z AUTO 34005KT 10SM CLR 33/23 A3005 RMK AO2 SLP171 T03280233
cycle: 16

Station Type Date Time Source
KHBG TAF 2021/08/01 12:46 UTC NOAA

TAF KHBG 011144Z 0112/0212 26005KT P6SM SKC
FM012000 28008KT P6SM VCTS SCT050CB
FM020200 21005KT P6SM VCSH SCT040 BKN250

Example: see airport list